SRC weather

Santa Rosalia Airstrip
Cananea, Tabasco, Mexico

Public forecast

Using degrees Celsius for public forecast. Weather courtesy of forecast.io.

Closest aviation weather report (METAR) to Santa Rosalia Airstrip

Closest report is Carlos Rovirosa Pérez International Airport, 31.4 nm (58.2 km) ESE. Retrieved 2019/12/09 18:43 UTC (0 seconds ago):

MMVA 091843Z 08008KT 7SM SCT012 29/21 A2991 RMK 8/100

Closest aviation forecast (TAF) to Santa Rosalia Airstrip

Closest forecast is Carlos Rovirosa Pérez International Airport, 31.4 nm (58.2 km) ESE. Retrieved 2019/12/09 18:57 UTC (0 seconds ago):

TAF MMVA 091655Z 0918/1018 08006KT P6SM SCT020 FM100600 10003KT 5SM BR HZ BKN010 TEMPO 1012/1014 1SM BR BKN006 FM101500 10005KT 5SM BR HZ SCT015